Time;durP1;ratioP1;P1;durP2;ratioP2;P2;SDS_P1;SDS_P2;PMS_P1;PMS_P2;Temp;Humidity;BMP_temperature;BMP_pressure;BME280_temperature;BME280_humidity;BME280_pressure;Samples;Min_cycle;Max_cycle;Signal;HPM_P1;HPM_P2
2024/03/13 00:00:22;;;;;;;9.82;8.00;;;;;;;;;;6246212;22;20179;-47
2024/03/13 00:02:50;;;;;;;11.05;8.32;;;;;;;;;;6245791;22;20180;-52
2024/03/13 00:05:17;;;;;;;11.90;8.60;;;;;;;;;;6246421;22;20173;-49
2024/03/13 00:07:44;;;;;;;10.70;8.18;;;;;;;;;;6246274;22;20200;-49
2024/03/13 00:10:12;;;;;;;10.63;8.95;;;;;;;;;;6245919;22;20195;-52
2024/03/13 00:12:42;;;;;;;11.57;9.85;;;;;;;;;;6246120;22;20283;-48
2024/03/13 00:15:11;;;;;;;9.25;7.55;;;;;;;;;;6246593;23;20173;-50
2024/03/13 00:17:39;;;;;;;8.50;7.35;;;;;;;;;;6246004;22;20193;-48
2024/03/13 00:20:11;;;;;;;7.55;6.53;;;;;;;;;;6246178;22;20177;-52
2024/03/13 00:22:40;;;;;;;11.18;8.05;;;;;;;;;;6246249;22;20162;-49
2024/03/13 00:25:11;;;;;;;10.73;7.93;;;;;;;;;;6246429;23;20173;-48
2024/03/13 00:27:39;;;;;;;9.55;8.45;;;;;;;;;;6246362;23;20550;-49
2024/03/13 00:30:10;;;;;;;10.20;8.23;;;;;;;;;;6246061;22;20271;-49
2024/03/13 00:32:37;;;;;;;8.15;7.15;;;;;;;;;;6245886;22;20179;-50
2024/03/13 00:35:06;;;;;;;9.70;8.70;;;;;;;;;;6246217;22;20496;-49
2024/03/13 00:37:34;;;;;;;9.10;7.65;;;;;;;;;;6245854;23;20193;-49
2024/03/13 00:40:02;;;;;;;9.50;7.88;;;;;;;;;;6246114;22;20180;-51
2024/03/13 00:42:29;;;;;;;7.72;6.40;;;;;;;;;;6245768;22;20211;-48
2024/03/13 00:44:57;;;;;;;10.43;7.53;;;;;;;;;;6244937;22;20179;-47
2024/03/13 00:47:26;;;;;;;7.68;6.68;;;;;;;;;;6245585;22;20197;-48
2024/03/13 00:49:53;;;;;;;9.48;7.90;;;;;;;;;;6245637;22;20235;-48
2024/03/13 00:52:21;;;;;;;8.73;7.70;;;;;;;;;;6245264;22;20177;-46
2024/03/13 00:54:50;;;;;;;15.43;10.35;;;;;;;;;;6245449;22;20180;-47
2024/03/13 00:57:18;;;;;;;13.48;10.35;;;;;;;;;;6245871;22;20505;-47
2024/03/13 00:59:46;;;;;;;11.32;8.80;;;;;;;;;;6245855;22;20185;-46
2024/03/13 01:02:14;;;;;;;10.05;8.35;;;;;;;;;;6245221;23;20256;-47
2024/03/13 01:04:43;;;;;;;11.30;8.88;;;;;;;;;;6245608;22;20181;-46
2024/03/13 01:07:12;;;;;;;8.82;7.45;;;;;;;;;;6245245;23;20247;-47
2024/03/13 01:09:40;;;;;;;10.85;8.27;;;;;;;;;;6245522;23;20173;-47
2024/03/13 01:12:08;;;;;;;8.48;7.57;;;;;;;;;;6245317;22;20200;-48
2024/03/13 01:14:35;;;;;;;9.48;6.82;;;;;;;;;;6245642;22;20187;-49
2024/03/13 01:17:03;;;;;;;6.97;5.93;;;;;;;;;;6245187;22;20519;-48
2024/03/13 01:19:33;;;;;;;8.80;7.85;;;;;;;;;;6245731;22;20196;-50
2024/03/13 01:22:05;;;;;;;9.77;7.30;;;;;;;;;;6245252;23;20177;-47
2024/03/13 01:24:33;;;;;;;10.52;7.40;;;;;;;;;;6245828;23;20236;-48
2024/03/13 01:27:00;;;;;;;8.82;7.22;;;;;;;;;;6245748;23;20200;-47
2024/03/13 01:29:28;;;;;;;10.18;7.85;;;;;;;;;;6245608;22;20199;-47
2024/03/13 01:31:57;;;;;;;11.80;8.60;;;;;;;;;;6245052;22;20173;-47
2024/03/13 01:34:25;;;;;;;12.80;9.95;;;;;;;;;;6246202;23;20720;-46
2024/03/13 01:39:38;;;;;;;11.35;8.65;;;;;;;;;;6245604;23;20160;-50
2024/03/13 01:56:22;;;;;;;19.08;13.25;;;;;;;;;;6245588;23;20656;-47
2024/03/13 01:59:02;;;;;;;19.98;14.55;;;;;;;;;;6245917;22;20159;-48
2024/03/13 02:04:15;;;;;;;14.00;12.27;;;;;;;;;;6245119;23;20164;-50
2024/03/13 02:06:43;;;;;;;13.27;10.32;;;;;;;;;;6245088;22;20194;-49
2024/03/13 02:09:10;;;;;;;11.95;9.63;;;;;;;;;;6244467;22;20203;-49
2024/03/13 02:11:39;;;;;;;13.70;10.32;;;;;;;;;;6244587;22;20185;-49
2024/03/13 02:14:07;;;;;;;13.82;11.57;;;;;;;;;;6244454;22;20177;-49
2024/03/13 02:16:35;;;;;;;17.38;12.40;;;;;;;;;;6244689;22;20522;-49
2024/03/13 02:19:02;;;;;;;17.08;13.00;;;;;;;;;;6244543;22;20177;-50
2024/03/13 02:21:32;;;;;;;16.23;12.48;;;;;;;;;;6243949;22;20260;-50
2024/03/13 02:24:00;;;;;;;15.32;11.80;;;;;;;;;;6245216;22;20240;-50
2024/03/13 02:26:27;;;;;;;14.57;10.88;;;;;;;;;;6192303;23;20174;-49
2024/03/13 02:28:55;;;;;;;12.35;10.18;;;;;;;;;;6192757;23;20199;-48
2024/03/13 02:31:23;;;;;;;13.88;10.43;;;;;;;;;;6192617;23;20275;-49
2024/03/13 02:33:50;;;;;;;14.65;11.02;;;;;;;;;;6193023;23;20173;-50
2024/03/13 02:36:18;;;;;;;14.85;11.50;;;;;;;;;;6192606;23;20177;-51
2024/03/13 02:38:47;;;;;;;16.95;12.18;;;;;;;;;;6192877;23;20196;-51
2024/03/13 02:41:14;;;;;;;11.45;8.70;;;;;;;;;;6192898;23;20614;-52
2024/03/13 02:43:42;;;;;;;10.48;9.15;;;;;;;;;;6217867;23;20173;-52
2024/03/13 02:46:12;;;;;;;12.85;9.68;;;;;;;;;;6192699;23;20179;-51
2024/03/13 02:48:39;;;;;;;12.25;9.30;;;;;;;;;;6194381;23;20204;-48
2024/03/13 02:51:08;;;;;;;14.32;11.15;;;;;;;;;;6192597;23;20256;-51
2024/03/13 02:53:38;;;;;;;13.82;11.00;;;;;;;;;;6193203;23;20193;-51
2024/03/13 02:56:07;;;;;;;16.27;13.77;;;;;;;;;;6194317;23;20173;-52
2024/03/13 02:58:35;;;;;;;16.00;11.23;;;;;;;;;;6193913;23;20211;-48
2024/03/13 03:01:03;;;;;;;15.27;10.80;;;;;;;;;;6192460;23;20177;-48
2024/03/13 03:03:31;;;;;;;21.20;15.18;;;;;;;;;;6192151;23;20177;-50
2024/03/13 03:06:01;;;;;;;20.95;12.63;;;;;;;;;;6192617;23;20247;-50
2024/03/13 03:08:29;;;;;;;19.70;13.68;;;;;;;;;;6194436;23;20231;-46
2024/03/13 03:10:56;;;;;;;18.15;12.65;;;;;;;;;;6192617;23;20200;-46
2024/03/13 03:13:24;;;;;;;18.77;12.48;;;;;;;;;;6192263;23;20177;-49
2024/03/13 03:15:52;;;;;;;20.38;14.32;;;;;;;;;;6192213;23;20183;-45
2024/03/13 03:18:19;;;;;;;18.20;13.52;;;;;;;;;;6192167;23;20526;-46
2024/03/13 03:20:47;;;;;;;14.30;12.05;;;;;;;;;;6192480;23;20179;-46
2024/03/13 03:23:15;;;;;;;17.27;12.85;;;;;;;;;;6191885;23;20208;-50
2024/03/13 03:25:42;;;;;;;18.38;13.10;;;;;;;;;;6192648;23;20177;-47
2024/03/13 03:28:13;;;;;;;17.48;13.50;;;;;;;;;;6192329;23;20540;-47
2024/03/13 03:30:42;;;;;;;16.02;13.50;;;;;;;;;;6194707;23;20177;-48
2024/03/13 03:33:12;;;;;;;18.10;13.20;;;;;;;;;;6192857;23;20184;-47
2024/03/13 03:35:40;;;;;;;21.15;14.32;;;;;;;;;;6194279;23;20158;-47
2024/03/13 03:38:08;;;;;;;18.90;13.85;;;;;;;;;;6192216;23;20196;-47
2024/03/13 03:40:35;;;;;;;18.60;12.93;;;;;;;;;;6192362;23;20177;-47
2024/03/13 03:43:04;;;;;;;17.98;12.65;;;;;;;;;;6192166;23;20179;-47
2024/03/13 03:45:32;;;;;;;22.15;14.32;;;;;;;;;;6217584;23;20183;-47
2024/03/13 03:48:00;;;;;;;17.63;12.35;;;;;;;;;;6192239;23;20246;-47
2024/03/13 03:50:27;;;;;;;19.77;13.80;;;;;;;;;;6192539;23;20197;-46
2024/03/13 03:52:55;;;;;;;16.10;11.45;;;;;;;;;;6191801;23;20519;-47
2024/03/13 03:55:23;;;;;;;11.40;10.00;;;;;;;;;;6192670;23;20251;-49
2024/03/13 03:57:50;;;;;;;11.40;9.52;;;;;;;;;;6192147;23;20193;-47
2024/03/13 04:00:22;;;;;;;13.15;10.57;;;;;;;;;;6192521;23;20487;-48
2024/03/13 04:02:51;;;;;;;11.10;9.25;;;;;;;;;;6194480;23;20211;-48
2024/03/13 04:05:19;;;;;;;18.67;11.65;;;;;;;;;;6193394;23;20264;-48
2024/03/13 04:07:48;;;;;;;16.50;12.10;;;;;;;;;;6192795;23;20819;-47
2024/03/13 04:10:17;;;;;;;15.90;12.52;;;;;;;;;;6189553;23;20280;-47
2024/03/13 04:12:45;;;;;;;16.75;13.00;;;;;;;;;;6216675;23;20195;-48
2024/03/13 04:15:13;;;;;;;19.33;14.30;;;;;;;;;;6192230;23;20570;-47
2024/03/13 04:17:40;;;;;;;20.08;14.48;;;;;;;;;;6216199;23;20658;-48
2024/03/13 04:20:12;;;;;;;21.55;15.80;;;;;;;;;;6191879;23;20169;-49
2024/03/13 04:22:40;;;;;;;18.95;14.23;;;;;;;;;;6194106;23;20233;-48
2024/03/13 04:25:08;;;;;;;15.65;11.98;;;;;;;;;;6192509;23;20174;-48
2024/03/13 04:27:37;;;;;;;16.73;12.00;;;;;;;;;;6216204;23;20268;-51
2024/03/13 04:30:05;;;;;;;14.63;11.40;;;;;;;;;;6216994;23;20208;-50
2024/03/13 04:32:35;;;;;;;16.58;11.00;;;;;;;;;;6191701;23;20212;-52
2024/03/13 04:35:03;;;;;;;15.93;12.10;;;;;;;;;;6193500;23;20173;-51
2024/03/13 04:37:31;;;;;;;14.35;11.15;;;;;;;;;;6193395;23;20587;-51
2024/03/13 04:39:59;;;;;;;14.25;10.95;;;;;;;;;;6193854;23;20170;-50
2024/03/13 04:42:27;;;;;;;12.98;9.45;;;;;;;;;;6193171;23;20173;-48
2024/03/13 04:44:55;;;;;;;13.43;9.70;;;;;;;;;;6193524;23;20532;-49
2024/03/13 04:47:23;;;;;;;13.35;10.93;;;;;;;;;;6194054;23;20197;-48
2024/03/13 04:49:51;;;;;;;14.15;10.63;;;;;;;;;;6218202;23;20193;-51
2024/03/13 04:52:20;;;;;;;11.80;9.75;;;;;;;;;;6193147;23;20173;-53
2024/03/13 04:54:48;;;;;;;12.70;11.40;;;;;;;;;;6194672;23;20181;-48
2024/03/13 04:57:15;;;;;;;18.33;12.30;;;;;;;;;;6218102;23;20192;-48
2024/03/13 04:59:43;;;;;;;12.50;9.73;;;;;;;;;;6193531;23;20175;-48
2024/03/13 05:02:10;;;;;;;14.18;9.65;;;;;;;;;;6192980;23;20630;-48
2024/03/13 05:04:38;;;;;;;12.30;10.20;;;;;;;;;;6193486;23;20177;-51
2024/03/13 05:07:08;;;;;;;16.17;12.07;;;;;;;;;;6192970;23;20193;-52
2024/03/13 05:09:36;;;;;;;15.10;10.95;;;;;;;;;;6195215;23;20547;-48
2024/03/13 05:12:04;;;;;;;15.98;12.00;;;;;;;;;;6193382;23;20548;-52
2024/03/13 05:14:32;;;;;;;16.58;13.02;;;;;;;;;;6193708;23;20226;-51
2024/03/13 05:17:00;;;;;;;13.98;12.25;;;;;;;;;;6193087;23;20692;-47
2024/03/13 05:19:27;;;;;;;13.43;11.20;;;;;;;;;;6193457;23;20173;-47
2024/03/13 05:21:57;;;;;;;12.65;11.30;;;;;;;;;;6193003;23;20234;-48
2024/03/13 05:24:24;;;;;;;13.50;9.85;;;;;;;;;;6194806;23;20184;-51
2024/03/13 05:26:53;;;;;;;11.85;10.10;;;;;;;;;;6193196;23;20200;-48
2024/03/13 05:29:20;;;;;;;10.43;8.10;;;;;;;;;;6218258;23;20720;-50
2024/03/13 05:31:49;;;;;;;9.82;7.55;;;;;;;;;;6192745;23;20197;-51
2024/03/13 05:34:17;;;;;;;9.50;8.13;;;;;;;;;;6194541;23;20181;-50
2024/03/13 05:36:45;;;;;;;9.95;8.68;;;;;;;;;;6192976;23;20535;-50
2024/03/13 05:39:13;;;;;;;10.63;8.52;;;;;;;;;;6193504;23;20287;-49
2024/03/13 05:41:41;;;;;;;14.90;11.32;;;;;;;;;;6192492;23;20180;-50
2024/03/13 05:44:08;;;;;;;13.55;10.35;;;;;;;;;;6193180;23;20234;-50
2024/03/13 05:46:36;;;;;;;15.75;11.10;;;;;;;;;;6217631;23;20176;-49
2024/03/13 05:49:04;;;;;;;10.18;7.72;;;;;;;;;;6193431;23;20180;-49
2024/03/13 05:51:34;;;;;;;10.35;8.32;;;;;;;;;;6192566;23;20197;-48
2024/03/13 05:54:02;;;;;;;9.77;8.68;;;;;;;;;;6194608;23;20259;-48
2024/03/13 05:56:30;;;;;;;13.23;10.00;;;;;;;;;;6193005;23;20179;-48
2024/03/13 05:58:57;;;;;;;11.63;9.90;;;;;;;;;;6192881;23;20173;-49
2024/03/13 06:01:27;;;;;;;13.60;9.52;;;;;;;;;;6192599;23;20525;-49
2024/03/13 06:03:56;;;;;;;11.82;8.90;;;;;;;;;;6194272;23;20307;-50
2024/03/13 06:06:24;;;;;;;12.70;9.70;;;;;;;;;;6193784;23;20657;-48
2024/03/13 06:08:51;;;;;;;10.40;8.63;;;;;;;;;;6217316;23;20173;-49
2024/03/13 06:11:19;;;;;;;13.50;10.50;;;;;;;;;;6191796;23;20196;-48
2024/03/13 06:13:47;;;;;;;10.35;7.97;;;;;;;;;;6192739;23;20203;-51
2024/03/13 06:16:15;;;;;;;11.50;8.00;;;;;;;;;;6192778;23;20177;-49
2024/03/13 06:18:42;;;;;;;8.48;7.10;;;;;;;;;;6192242;23;20231;-48
2024/03/13 06:21:10;;;;;;;12.60;9.65;;;;;;;;;;6192599;23;20695;-48
2024/03/13 06:23:47;;;;;;;12.27;8.60;;;;;;;;;;6192706;23;20174;-50
2024/03/13 06:26:17;;;;;;;13.32;9.20;;;;;;;;;;6197258;23;20165;-48
2024/03/13 06:31:30;;;;;;;12.73;8.93;;;;;;;;;;6200758;23;20236;-48
2024/03/13 06:33:59;;;;;;;13.93;9.25;;;;;;;;;;6192882;23;20633;-49
2024/03/13 06:36:26;;;;;;;10.73;8.05;;;;;;;;;;6194151;23;20190;-51
2024/03/13 06:38:54;;;;;;;9.43;7.28;;;;;;;;;;6192758;23;20184;-50
2024/03/13 06:41:23;;;;;;;10.90;7.65;;;;;;;;;;6216613;23;20670;-51
2024/03/13 06:43:51;;;;;;;9.45;7.18;;;;;;;;;;6194199;23;20744;-51
2024/03/13 06:46:19;;;;;;;10.20;8.25;;;;;;;;;;6192929;23;20177;-51
2024/03/13 06:48:46;;;;;;;12.35;8.02;;;;;;;;;;6192278;23;20538;-48
2024/03/13 06:51:14;;;;;;;11.70;6.30;;;;;;;;;;6191803;23;20196;-51
2024/03/13 06:53:42;;;;;;;9.13;6.95;;;;;;;;;;6192519;23;20185;-48
2024/03/13 06:56:09;;;;;;;7.18;6.20;;;;;;;;;;6192324;23;20783;-47
2024/03/13 06:58:38;;;;;;;6.70;5.50;;;;;;;;;;6168252;23;20541;-48
2024/03/13 07:01:12;;;;;;;7.22;5.53;;;;;;;;;;6217140;23;20174;-49
2024/03/13 07:03:41;;;;;;;6.47;4.97;;;;;;;;;;6193428;23;20633;-52
2024/03/13 07:06:08;;;;;;;5.97;5.07;;;;;;;;;;6192744;23;20181;-48
2024/03/13 07:08:36;;;;;;;6.40;5.05;;;;;;;;;;6192374;23;20535;-47
2024/03/13 07:11:07;;;;;;;6.50;4.88;;;;;;;;;;6216947;23;20573;-51
2024/03/13 07:13:34;;;;;;;7.03;5.07;;;;;;;;;;6192613;23;20209;-50
2024/03/13 07:16:02;;;;;;;6.10;4.97;;;;;;;;;;6192330;23;20509;-50
2024/03/13 07:18:31;;;;;;;5.07;4.13;;;;;;;;;;6192315;23;20201;-50
2024/03/13 07:20:59;;;;;;;5.82;4.25;;;;;;;;;;6193335;23;20169;-49
2024/03/13 07:23:27;;;;;;;5.10;4.60;;;;;;;;;;6192310;23;20173;-49
2024/03/13 07:25:55;;;;;;;4.40;3.80;;;;;;;;;;6192356;23;20585;-49
2024/03/13 07:28:22;;;;;;;6.75;4.40;;;;;;;;;;6192503;23;20673;-47
2024/03/13 07:30:50;;;;;;;3.67;3.38;;;;;;;;;;6192144;23;20173;-48
2024/03/13 07:33:18;;;;;;;3.50;3.20;;;;;;;;;;6192080;23;20177;-48
2024/03/13 07:35:46;;;;;;;4.80;3.95;;;;;;;;;;6192400;23;20173;-47
2024/03/13 07:38:13;;;;;;;5.03;3.50;;;;;;;;;;6192464;23;20199;-51
2024/03/13 07:40:41;;;;;;;4.55;3.60;;;;;;;;;;6191693;23;20514;-48
2024/03/13 07:43:09;;;;;;;3.58;3.03;;;;;;;;;;6191902;23;20591;-49
2024/03/13 07:45:38;;;;;;;4.13;3.47;;;;;;;;;;6192425;23;20183;-47
2024/03/13 07:48:08;;;;;;;3.58;3.25;;;;;;;;;;6192344;23;20197;-47
2024/03/13 07:50:36;;;;;;;2.80;2.60;;;;;;;;;;6194157;23;20475;-49
2024/03/13 07:53:04;;;;;;;3.15;2.92;;;;;;;;;;6191890;23;20283;-49
2024/03/13 07:55:32;;;;;;;3.80;3.40;;;;;;;;;;6192526;23;20227;-48
2024/03/13 07:58:00;;;;;;;2.88;2.58;;;;;;;;;;6191574;23;20201;-48
2024/03/13 08:00:28;;;;;;;2.60;2.40;;;;;;;;;;6192393;23;20180;-48
2024/03/13 08:02:55;;;;;;;2.90;2.58;;;;;;;;;;6192202;23;20514;-48
2024/03/13 08:05:23;;;;;;;3.75;3.30;;;;;;;;;;6192199;23;20634;-48
2024/03/13 08:07:51;;;;;;;3.70;3.33;;;;;;;;;;6192127;23;20271;-48
2024/03/13 08:10:18;;;;;;;3.67;3.22;;;;;;;;;;6191847;23;20653;-49
2024/03/13 08:12:46;;;;;;;3.55;3.22;;;;;;;;;;6217857;23;20534;-48
2024/03/13 08:15:14;;;;;;;2.70;2.50;;;;;;;;;;6194165;23;20487;-48
2024/03/13 08:17:45;;;;;;;3.20;2.92;;;;;;;;;;6195459;23;20251;-48
2024/03/13 08:20:14;;;;;;;4.70;4.07;;;;;;;;;;6195147;23;20255;-47
2024/03/13 08:22:43;;;;;;;5.63;5.00;;;;;;;;;;6195575;23;20173;-52
2024/03/13 08:25:16;;;;;;;3.88;3.47;;;;;;;;;;6195446;23;20177;-48
2024/03/13 08:27:43;;;;;;;3.63;3.15;;;;;;;;;;6196899;23;20719;-48
2024/03/13 08:30:11;;;;;;;3.92;2.78;;;;;;;;;;6194334;23;20173;-49
2024/03/13 08:32:39;;;;;;;2.75;2.47;;;;;;;;;;6193813;23;20207;-47
2024/03/13 08:35:08;;;;;;;2.80;2.60;;;;;;;;;;6194198;23;20634;-50
2024/03/13 08:37:36;;;;;;;4.18;3.78;;;;;;;;;;6219739;23;20197;-49
2024/03/13 08:40:07;;;;;;;3.33;3.03;;;;;;;;;;6193610;23;20924;-49
2024/03/13 08:42:35;;;;;;;3.05;2.50;;;;;;;;;;6195778;23;20157;-48
2024/03/13 08:45:03;;;;;;;4.65;3.70;;;;;;;;;;6194461;23;20941;-51
2024/03/13 08:47:30;;;;;;;3.13;2.83;;;;;;;;;;6194172;23;20197;-48
2024/03/13 08:49:58;;;;;;;2.78;2.58;;;;;;;;;;6194188;23;20173;-50
2024/03/13 08:52:26;;;;;;;3.22;2.92;;;;;;;;;;6193870;23;20715;-47
2024/03/13 08:54:54;;;;;;;4.13;3.35;;;;;;;;;;6218142;23;20638;-48
2024/03/13 08:57:22;;;;;;;4.22;3.03;;;;;;;;;;6193791;23;20197;-49
2024/03/13 08:59:49;;;;;;;3.45;3.15;;;;;;;;;;6193739;23;20256;-51
2024/03/13 09:02:17;;;;;;;3.40;3.10;;;;;;;;;;6193189;23;20652;-46
2024/03/13 09:04:45;;;;;;;3.60;3.30;;;;;;;;;;6218495;23;20173;-48
2024/03/13 09:07:13;;;;;;;3.60;3.30;;;;;;;;;;6194087;23;20670;-47
2024/03/13 09:09:40;;;;;;;3.50;3.20;;;;;;;;;;6218172;23;20255;-47
2024/03/13 09:12:11;;;;;;;4.80;3.08;;;;;;;;;;6192583;23;20272;-47
2024/03/13 09:14:39;;;;;;;3.78;3.20;;;;;;;;;;6195646;23;20211;-48
2024/03/13 09:17:06;;;;;;;3.33;3.03;;;;;;;;;;6193290;23;20712;-47
2024/03/13 09:19:37;;;;;;;3.47;3.10;;;;;;;;;;6192480;23;20187;-47
2024/03/13 09:22:07;;;;;;;2.88;2.65;;;;;;;;;;6194692;23;20158;-47
2024/03/13 09:24:34;;;;;;;3.45;3.05;;;;;;;;;;6218740;23;20173;-48
2024/03/13 09:27:02;;;;;;;2.65;2.45;;;;;;;;;;6193071;23;20200;-49
2024/03/13 09:29:31;;;;;;;3.80;3.50;;;;;;;;;;6193243;23;20177;-50
2024/03/13 09:31:59;;;;;;;3.20;2.90;;;;;;;;;;6218546;23;20657;-48
2024/03/13 09:34:29;;;;;;;3.88;3.58;;;;;;;;;;6192997;23;20252;-46
2024/03/13 09:36:59;;;;;;;3.10;2.80;;;;;;;;;;6194998;23;20208;-48
2024/03/13 09:39:26;;;;;;;2.95;2.70;;;;;;;;;;6195159;23;20176;-47
2024/03/13 09:41:54;;;;;;;4.13;3.72;;;;;;;;;;6192499;23;20173;-48
2024/03/13 09:44:22;;;;;;;5.55;4.00;;;;;;;;;;6193438;23;20179;-50
2024/03/13 09:46:51;;;;;;;3.60;3.30;;;;;;;;;;6193307;23;20224;-46
2024/03/13 09:49:19;;;;;;;3.42;3.13;;;;;;;;;;6194667;23;20173;-49
2024/03/13 09:51:46;;;;;;;3.85;3.35;;;;;;;;;;6192649;23;20208;-48
2024/03/13 09:54:14;;;;;;;3.25;3.00;;;;;;;;;;6192810;23;20203;-47
2024/03/13 09:56:42;;;;;;;4.20;3.80;;;;;;;;;;6217922;23;20177;-49
2024/03/13 09:59:10;;;;;;;4.88;3.80;;;;;;;;;;6193465;23;20702;-46
2024/03/13 10:01:38;;;;;;;3.53;3.05;;;;;;;;;;6218316;23;20184;-48
2024/03/13 10:04:10;;;;;;;3.97;3.47;;;;;;;;;;6192971;23;20296;-48
2024/03/13 10:06:39;;;;;;;4.05;3.65;;;;;;;;;;6195454;23;20163;-47
2024/03/13 10:09:12;;;;;;;3.97;3.38;;;;;;;;;;6193713;23;20179;-50
2024/03/13 10:11:42;;;;;;;3.55;3.20;;;;;;;;;;6195285;23;20168;-46
2024/03/13 10:14:11;;;;;;;3.80;3.38;;;;;;;;;;6194419;23;20181;-47
2024/03/13 10:16:39;;;;;;;4.03;3.63;;;;;;;;;;6194460;23;20264;-47
2024/03/13 10:19:07;;;;;;;4.13;3.70;;;;;;;;;;6192892;23;20638;-47
2024/03/13 10:21:34;;;;;;;4.80;3.45;;;;;;;;;;6192315;23;20173;-49
2024/03/13 10:24:04;;;;;;;3.63;3.25;;;;;;;;;;6192677;23;20176;-47
2024/03/13 10:26:32;;;;;;;4.43;3.60;;;;;;;;;;6218843;23;20207;-48
2024/03/13 10:29:00;;;;;;;3.35;2.83;;;;;;;;;;6192619;23;20173;-49
2024/03/13 10:31:27;;;;;;;3.25;2.95;;;;;;;;;;6192632;23;20172;-47
2024/03/13 10:33:56;;;;;;;3.88;3.03;;;;;;;;;;6217052;23;20271;-48
2024/03/13 10:36:24;;;;;;;3.30;3.00;;;;;;;;;;6194300;23;20179;-47
2024/03/13 10:38:53;;;;;;;4.07;3.65;;;;;;;;;;6192624;23;20177;-48
2024/03/13 10:41:20;;;;;;;4.15;3.55;;;;;;;;;;6193051;23;20189;-47
2024/03/13 10:43:48;;;;;;;3.55;3.25;;;;;;;;;;6192866;23;20247;-50
2024/03/13 10:46:16;;;;;;;3.55;3.25;;;;;;;;;;6217166;23;20259;-46
2024/03/13 10:48:44;;;;;;;3.33;3.00;;;;;;;;;;6193194;23;20227;-47
2024/03/13 10:51:13;;;;;;;4.07;3.63;;;;;;;;;;6192824;23;20276;-47
2024/03/13 10:53:40;;;;;;;4.68;3.05;;;;;;;;;;6192421;23;20197;-47
2024/03/13 10:56:14;;;;;;;3.50;3.17;;;;;;;;;;6192377;23;20588;-47
2024/03/13 10:58:43;;;;;;;3.63;3.05;;;;;;;;;;6194512;23;20201;-47
2024/03/13 11:01:16;;;;;;;4.43;4.03;;;;;;;;;;6193396;23;20184;-47
2024/03/13 11:03:45;;;;;;;4.40;3.78;;;;;;;;;;6194155;23;20485;-47
2024/03/13 11:06:14;;;;;;;4.07;3.70;;;;;;;;;;6193030;23;20174;-50
2024/03/13 11:08:44;;;;;;;3.95;3.45;;;;;;;;;;6193552;23;20387;-46
2024/03/13 11:11:12;;;;;;;3.33;3.03;;;;;;;;;;6218079;23;20183;-48
2024/03/13 11:13:40;;;;;;;4.35;3.15;;;;;;;;;;6192504;23;20200;-47
2024/03/13 11:16:08;;;;;;;4.53;3.47;;;;;;;;;;6192557;23;20231;-45
2024/03/13 11:18:35;;;;;;;4.57;4.18;;;;;;;;;;6192170;23;20281;-50
2024/03/13 11:21:03;;;;;;;3.90;3.50;;;;;;;;;;6192160;23;20263;-46
2024/03/13 11:23:33;;;;;;;3.38;2.80;;;;;;;;;;6192429;23;20176;-51
2024/03/13 11:26:01;;;;;;;5.85;3.53;;;;;;;;;;6193325;23;20227;-48
2024/03/13 11:28:29;;;;;;;3.45;3.15;;;;;;;;;;6217275;23;20247;-47
2024/03/13 11:30:57;;;;;;;5.93;3.92;;;;;;;;;;6216686;23;20550;-47
2024/03/13 11:33:25;;;;;;;4.53;4.13;;;;;;;;;;6191657;23;20196;-47
2024/03/13 11:35:52;;;;;;;3.88;3.55;;;;;;;;;;6192116;23;20207;-47
2024/03/13 11:38:20;;;;;;;3.85;3.03;;;;;;;;;;6216296;23;20272;-47
2024/03/13 11:40:48;;;;;;;3.95;3.25;;;;;;;;;;6191196;23;20173;-49
2024/03/13 11:43:22;;;;;;;3.40;3.10;;;;;;;;;;6191714;23;20199;-51
2024/03/13 11:45:50;;;;;;;3.13;2.78;;;;;;;;;;6194066;23;20585;-52
2024/03/13 11:48:17;;;;;;;4.18;2.53;;;;;;;;;;6195356;23;20199;-52
2024/03/13 11:51:15;;;;;;;3.80;3.47;;;;;;;;;;6195253;23;20176;-49
2024/03/13 11:53:44;;;;;;;2.83;2.63;;;;;;;;;;6154416;23;20203;-51
2024/03/13 11:56:19;;;;;;;3.70;3.35;;;;;;;;;;6225436;23;20255;-53
2024/03/13 11:58:48;;;;;;;3.78;3.47;;;;;;;;;;6198624;23;20653;-48
2024/03/13 12:01:17;;;;;;;3.38;3.08;;;;;;;;;;6195400;23;20180;-50
2024/03/13 12:03:46;;;;;;;3.67;3.35;;;;;;;;;;6196184;23;20180;-49
2024/03/13 12:06:37;;;;;;;3.50;3.20;;;;;;;;;;6195832;23;20180;-47
2024/03/13 12:09:09;;;;;;;4.70;3.22;;;;;;;;;;6221073;23;20643;-48
2024/03/13 12:11:37;;;;;;;4.13;2.58;;;;;;;;;;6197317;23;20164;-50
2024/03/13 12:14:06;;;;;;;4.50;3.60;;;;;;;;;;6195265;23;20197;-47
2024/03/13 12:16:33;;;;;;;3.78;3.30;;;;;;;;;;6195426;23;20181;-48
2024/03/13 12:19:03;;;;;;;3.53;3.22;;;;;;;;;;6219300;23;20176;-51
2024/03/13 12:21:32;;;;;;;2.95;2.45;;;;;;;;;;6195782;23;20184;-51
2024/03/13 12:24:00;;;;;;;4.00;2.90;;;;;;;;;;6196091;23;20176;-51
2024/03/13 12:26:28;;;;;;;3.50;2.97;;;;;;;;;;6195243;23;20177;-49
2024/03/13 12:28:56;;;;;;;3.17;2.83;;;;;;;;;;6195030;23;20259;-51
2024/03/13 12:31:24;;;;;;;3.80;3.38;;;;;;;;;;6194285;23;20179;-49
2024/03/13 12:33:57;;;;;;;3.25;2.95;;;;;;;;;;6195149;23;20256;-49
2024/03/13 12:36:27;;;;;;;3.72;2.95;;;;;;;;;;6197533;23;20157;-48
2024/03/13 12:38:55;;;;;;;3.42;3.13;;;;;;;;;;6196593;23;20172;-53
2024/03/13 12:41:23;;;;;;;3.20;2.90;;;;;;;;;;6194647;23;20191;-47
2024/03/13 12:43:50;;;;;;;2.83;2.63;;;;;;;;;;6194910;23;20176;-50
2024/03/13 12:46:18;;;;;;;3.85;2.97;;;;;;;;;;6194654;23;20173;-49
2024/03/13 12:48:46;;;;;;;3.42;3.13;;;;;;;;;;6194301;23;20192;-50
2024/03/13 12:51:13;;;;;;;2.90;2.70;;;;;;;;;;6194474;23;20256;-52
2024/03/13 12:53:41;;;;;;;3.05;2.80;;;;;;;;;;6194839;23;20529;-53
2024/03/13 12:56:12;;;;;;;3.70;2.63;;;;;;;;;;6194627;23;20196;-51
2024/03/13 12:58:41;;;;;;;4.85;2.70;;;;;;;;;;6192910;23;20299;-49
2024/03/13 13:01:09;;;;;;;2.60;2.40;;;;;;;;;;6218660;23;20176;-51
2024/03/13 13:03:37;;;;;;;3.47;2.70;;;;;;;;;;6193390;23;20173;-48
2024/03/13 13:06:07;;;;;;;2.53;2.33;;;;;;;;;;6217653;23;20196;-49
2024/03/13 13:08:34;;;;;;;3.20;2.72;;;;;;;;;;6219115;23;20200;-49
2024/03/13 13:11:04;;;;;;;3.03;2.60;;;;;;;;;;6192626;23;20250;-50
2024/03/13 13:13:32;;;;;;;5.25;2.85;;;;;;;;;;6194664;23;20173;-48
2024/03/13 13:16:05;;;;;;;3.30;2.63;;;;;;;;;;6217732;23;20523;-48
2024/03/13 13:18:33;;;;;;;2.20;1.95;;;;;;;;;;6196253;23;20197;-52
2024/03/13 13:21:01;;;;;;;2.55;2.35;;;;;;;;;;6192816;23;20256;-50
2024/03/13 13:23:29;;;;;;;2.38;2.22;;;;;;;;;;6192450;23;20690;-49
2024/03/13 13:25:57;;;;;;;2.30;2.10;;;;;;;;;;6193643;23;20252;-49
2024/03/13 13:28:25;;;;;;;2.53;2.10;;;;;;;;;;6193210;23;20232;-48
2024/03/13 13:30:52;;;;;;;2.30;2.17;;;;;;;;;;6193221;23;20173;-50
2024/03/13 13:33:20;;;;;;;2.72;2.53;;;;;;;;;;6217263;23;20184;-47
2024/03/13 13:35:48;;;;;;;2.70;2.50;;;;;;;;;;6192942;23;20728;-49
2024/03/13 13:38:18;;;;;;;2.10;1.90;;;;;;;;;;6192867;23;20229;-50
2024/03/13 13:40:45;;;;;;;2.72;2.53;;;;;;;;;;6194074;23;20259;-52
2024/03/13 13:43:13;;;;;;;2.92;2.70;;;;;;;;;;6217053;23;20173;-48
2024/03/13 13:45:41;;;;;;;3.15;2.85;;;;;;;;;;6192641;23;20169;-50
2024/03/13 13:48:09;;;;;;;3.00;2.67;;;;;;;;;;6192444;23;20538;-51
2024/03/13 13:50:37;;;;;;;2.10;2.00;;;;;;;;;;6192716;23;20552;-51
2024/03/13 13:53:04;;;;;;;2.10;2.00;;;;;;;;;;6192313;23;20187;-51
2024/03/13 13:55:32;;;;;;;2.33;2.15;;;;;;;;;;6192535;23;20197;-52
2024/03/13 13:58:03;;;;;;;2.30;2.00;;;;;;;;;;6192570;23;20535;-51
2024/03/13 14:00:31;;;;;;;2.00;1.90;;;;;;;;;;6219299;23;20244;-52
2024/03/13 14:02:59;;;;;;;3.17;2.13;;;;;;;;;;6192430;23;20173;-52
2024/03/13 14:05:30;;;;;;;2.17;2.08;;;;;;;;;;6190522;23;20176;-49
2024/03/13 14:07:58;;;;;;;3.15;1.77;;;;;;;;;;6193187;23;20213;-49
2024/03/13 14:10:25;;;;;;;2.35;2.15;;;;;;;;;;6190221;23;20177;-53
2024/03/13 14:12:55;;;;;;;2.50;2.30;;;;;;;;;;6215639;23;20177;-50
2024/03/13 14:15:23;;;;;;;2.30;2.10;;;;;;;;;;6194310;23;20276;-48
2024/03/13 14:17:51;;;;;;;2.40;2.17;;;;;;;;;;6193233;23;20197;-51
2024/03/13 14:20:19;;;;;;;2.00;1.90;;;;;;;;;;6192847;23;20211;-51
2024/03/13 14:22:48;;;;;;;2.33;2.10;;;;;;;;;;6218127;23;20173;-53
2024/03/13 14:25:16;;;;;;;2.35;2.20;;;;;;;;;;6194076;23;20207;-48
2024/03/13 14:27:43;;;;;;;2.90;2.70;;;;;;;;;;6192781;23;20196;-47
2024/03/13 14:30:11;;;;;;;2.28;2.08;;;;;;;;;;6192793;23;20232;-51
2024/03/13 14:32:39;;;;;;;2.67;2.47;;;;;;;;;;6217214;23;20173;-53
2024/03/13 14:35:09;;;;;;;2.85;2.65;;;;;;;;;;6192300;23;20535;-53
2024/03/13 14:37:37;;;;;;;2.10;2.00;;;;;;;;;;6194655;23;20662;-51
2024/03/13 14:40:10;;;;;;;3.55;3.03;;;;;;;;;;6217828;23;20239;-52
2024/03/13 14:42:38;;;;;;;3.42;3.13;;;;;;;;;;6195417;23;20223;-52
2024/03/13 14:45:06;;;;;;;3.40;2.90;;;;;;;;;;6192565;23;20180;-53
2024/03/13 14:47:34;;;;;;;3.92;2.88;;;;;;;;;;6192159;23;20200;-49
2024/03/13 14:50:01;;;;;;;2.95;2.75;;;;;;;;;;6191945;23;20180;-49
2024/03/13 14:52:29;;;;;;;2.60;2.40;;;;;;;;;;6216523;23;20179;-50
2024/03/13 14:54:57;;;;;;;2.63;2.42;;;;;;;;;;6191988;23;20181;-48
2024/03/13 14:57:27;;;;;;;2.67;2.47;;;;;;;;;;6192226;23;20197;-48
2024/03/13 14:59:55;;;;;;;2.88;2.67;;;;;;;;;;6218358;23;20172;-48
2024/03/13 15:02:24;;;;;;;2.85;2.60;;;;;;;;;;6216796;23;20177;-50
2024/03/13 15:04:52;;;;;;;2.75;2.55;;;;;;;;;;6192893;23;20204;-50